Time;durP1;ratioP1;P1;durP2;ratioP2;P2;SDS_P1;SDS_P2;PMS_P1;PMS_P2;Temp;Humidity;BMP_temperature;BMP_pressure;BME280_temperature;BME280_humidity;BME280_pressure;Samples;Min_cycle;Max_cycle;Signal;HPM_P1;HPM_P2
2022/04/27 00:01:17;;;;;;;14.30;12.90;;;;;;;12.53;64.21;98156.06;8122233;29;20237;-80
2022/04/27 00:05:20;;;;;;;13.03;11.83;;;;;;;12.57;64.33;98162.78;8123028;29;20241;-80
2022/04/27 00:09:23;;;;;;;13.37;12.10;;;;;;;12.21;64.77;98158.44;8122496;29;20531;-80
2022/04/27 00:13:28;;;;;;;14.13;11.73;;;;;;;12.52;64.79;98160.38;8122935;29;20245;-80
2022/04/27 00:17:30;;;;;;;12.63;11.53;;;;;;;12.55;64.36;98151.63;8122911;29;20249;-80
2022/04/27 00:21:33;;;;;;;14.23;12.83;;;;;;;12.52;64.74;98159.56;8122878;29;20240;-80
2022/04/27 00:25:37;;;;;;;17.40;15.90;;;;;;;12.39;64.73;98156.72;8122594;29;20244;-80
2022/04/27 00:29:41;;;;;;;15.80;14.40;;;;;;;12.55;64.60;98159.41;8122885;29;20573;-80
2022/04/27 00:33:45;;;;;;;15.63;14.23;;;;;;;12.36;64.82;98163.84;8122800;29;20237;-81
2022/04/27 00:37:48;;;;;;;16.90;15.40;;;;;;;12.55;64.29;98162.00;8124277;29;20300;-80
2022/04/27 00:42:00;;;;;;;17.43;15.80;;;;;;;12.65;64.23;98157.19;8128072;29;20244;-79
2022/04/27 00:46:04;;;;;;;17.30;15.70;;;;;;;12.46;64.35;98172.84;8140793;29;20324;-81
2022/04/27 00:50:09;;;;;;;17.43;15.77;;;;;;;12.31;65.23;98174.44;8158934;29;20243;-80
2022/04/27 00:54:12;;;;;;;16.03;14.53;;;;;;;12.16;65.33;98172.56;8158856;29;20240;-81
2022/04/27 00:58:15;;;;;;;12.17;11.07;;;;;;;12.04;64.71;98179.19;8158748;29;20251;-81
2022/04/27 01:02:40;;;;;;;10.30;9.33;;;;;;;11.96;64.53;98173.53;8158210;29;20236;-80
2022/04/27 01:06:45;;;;;;;10.13;9.10;;;;;;;11.93;64.85;98182.28;8158419;29;20389;-80
2022/04/27 01:10:49;;;;;;;7.00;6.40;;;;;;;12.07;64.34;98189.41;8158358;29;20267;-80
2022/04/27 01:14:52;;;;;;;6.97;6.37;;;;;;;11.83;65.10;98189.59;8158176;29;20425;-80
2022/04/27 01:18:56;;;;;;;6.40;5.80;;;;;;;11.86;64.30;98196.41;8157995;29;20248;-80
2022/04/27 01:23:01;;;;;;;6.57;5.97;;;;;;;12.19;63.76;98198.41;8157867;29;20236;-80
2022/04/27 01:27:05;;;;;;;5.67;4.97;;;;;;;12.29;63.58;98197.88;8157854;29;20450;-80
2022/04/27 01:31:09;;;;;;;6.07;5.50;;;;;;;12.31;63.09;98203.81;8157712;29;20240;-80
2022/04/27 01:35:12;;;;;;;5.97;5.37;;;;;;;12.32;62.75;98200.31;8157583;29;20240;-80
2022/04/27 01:39:22;;;;;;;6.10;5.57;;;;;;;12.39;62.58;98202.63;8157644;29;20244;-80
2022/04/27 01:43:25;;;;;;;6.70;6.10;;;;;;;12.30;62.38;98209.13;8156945;29;20246;-80
2022/04/27 01:47:28;;;;;;;6.70;5.80;;;;;;;12.32;62.69;98207.28;8156884;29;20248;-80
2022/04/27 01:55:53;;;;;;;5.27;4.80;;;;;;;12.47;62.38;98210.88;8157075;29;20236;-80
2022/04/27 01:59:56;;;;;;;5.50;5.00;;;;;;;12.44;62.48;98206.69;8156849;29;20246;-80
2022/04/27 02:03:59;;;;;;;6.33;5.30;;;;;;;12.47;62.33;98205.69;8156712;29;20240;-80
2022/04/27 02:08:02;;;;;;;5.80;5.20;;;;;;;12.45;62.47;98210.97;8156295;29;20260;-80
2022/04/27 02:12:08;;;;;;;5.80;5.20;;;;;;;12.45;62.93;98208.38;8156484;29;20243;-80
2022/04/27 02:16:11;;;;;;;6.50;5.50;;;;;;;12.50;62.88;98216.78;8156332;29;20554;-80
2022/04/27 02:20:14;;;;;;;5.90;5.40;;;;;;;12.49;63.41;98219.47;8156314;29;20244;-80
2022/04/27 02:24:17;;;;;;;7.50;6.90;;;;;;;12.51;62.77;98226.25;8156032;29;20240;-80
2022/04/27 02:28:22;;;;;;;8.57;7.77;;;;;;;12.51;63.13;98231.47;8155961;29;20570;-80
2022/04/27 02:32:25;;;;;;;10.20;9.30;;;;;;;12.50;63.44;98237.56;8131715;29;20232;-80
2022/04/27 02:36:28;;;;;;;11.00;9.93;;;;;;;12.42;63.50;98238.84;8124351;29;20241;-79
2022/04/27 02:40:31;;;;;;;11.27;10.27;;;;;;;12.42;63.47;98237.09;8124293;29;20248;-80
2022/04/27 02:44:35;;;;;;;10.03;9.07;;;;;;;12.42;63.38;98234.50;8124221;29;20241;-80
2022/04/27 02:51:48;;;;;;;13.10;9.80;;;;;;;12.47;62.84;98239.44;8124092;29;20252;-80
2022/04/27 02:53:03;;;;;;;10.50;9.60;;;;;;;12.47;62.77;98242.91;8123858;29;20244;-80
2022/04/27 02:57:06;;;;;;;10.70;9.80;;;;;;;12.44;63.14;98244.81;8124151;29;20264;-81
2022/04/27 03:01:11;;;;;;;12.93;10.83;;;;;;;12.42;63.21;98244.88;8123806;29;20523;-80
2022/04/27 03:05:14;;;;;;;10.60;9.60;;;;;;;12.44;63.01;98245.66;8123906;29;20253;-80
2022/04/27 03:09:17;;;;;;;11.93;10.73;;;;;;;12.37;62.86;98252.03;8123400;29;20248;-80
2022/04/27 03:13:20;;;;;;;10.57;9.57;;;;;;;12.45;62.80;98251.69;8123675;29;20244;-80
2022/04/27 03:17:24;;;;;;;9.97;9.10;;;;;;;12.43;62.79;98248.31;8154405;29;20247;-79
2022/04/27 03:21:32;;;;;;;9.87;8.77;;;;;;;12.40;62.98;98254.50;8154482;29;20244;-80
2022/04/27 03:25:35;;;;;;;9.73;8.70;;;;;;;12.38;62.79;98258.94;8154505;29;20246;-80
2022/04/27 03:29:38;;;;;;;14.17;10.90;;;;;;;12.33;62.95;98263.50;8154424;29;20248;-79
2022/04/27 03:33:43;;;;;;;9.50;7.97;;;;;;;12.33;62.80;98266.91;8154564;29;20246;-80
2022/04/27 03:37:46;;;;;;;7.30;6.70;;;;;;;12.38;62.72;98263.28;8154461;29;20419;-80
2022/04/27 03:41:48;;;;;;;7.30;6.70;;;;;;;12.28;62.87;98261.13;8154434;29;20236;-80
2022/04/27 03:45:51;;;;;;;8.17;7.00;;;;;;;12.24;63.03;98262.19;8154127;29;20235;-80
2022/04/27 03:49:59;;;;;;;7.33;6.73;;;;;;;12.28;62.84;98263.72;8154345;29;20244;-80
2022/04/27 03:54:03;;;;;;;6.93;6.33;;;;;;;12.27;62.93;98274.16;8154224;29;20244;-79
2022/04/27 03:58:06;;;;;;;7.00;6.40;;;;;;;12.26;63.00;98277.66;8154281;29;20248;-79
2022/04/27 04:02:09;;;;;;;8.23;6.70;;;;;;;12.26;62.97;98277.66;8154369;29;20251;-78
2022/04/27 04:06:14;;;;;;;7.20;6.50;;;;;;;12.26;62.78;98275.94;8154405;29;20263;-79
2022/04/27 04:10:17;;;;;;;7.33;6.37;;;;;;;12.22;62.53;98284.78;8154290;29;20255;-79
2022/04/27 04:14:19;;;;;;;6.50;5.90;;;;;;;12.32;62.38;98295.59;8157923;29;20239;-79
2022/04/27 04:18:22;;;;;;;6.43;5.93;;;;;;;12.30;62.17;98305.19;8159631;29;20527;-79
2022/04/27 04:22:27;;;;;;;6.20;5.70;;;;;;;12.24;62.41;98298.53;8160041;29;20243;-79
2022/04/27 04:30:50;;;;;;;6.00;5.43;;;;;;;12.19;61.90;98313.47;8159601;29;20250;-79
2022/04/27 04:34:55;;;;;;;6.30;5.70;;;;;;;12.19;61.79;98323.03;8159596;29;20421;-80
2022/04/27 04:38:59;;;;;;;5.80;5.30;;;;;;;12.25;61.61;98327.94;8159656;29;20240;-79
2022/04/27 04:43:03;;;;;;;5.50;5.00;;;;;;;12.21;61.66;98334.19;8159423;29;20240;-80
2022/04/27 04:47:06;;;;;;;5.90;5.40;;;;;;;12.24;61.67;98339.22;8159288;29;20244;-79
2022/04/27 04:51:09;;;;;;;6.77;6.17;;;;;;;12.24;61.87;98345.28;8159146;29;20433;-77
2022/04/27 04:55:34;;;;;;;7.07;6.37;;;;;;;12.28;62.16;98340.75;8158710;29;20262;-79
2022/04/27 04:59:37;;;;;;;6.87;6.27;;;;;;;12.33;62.32;98356.97;8159139;29;20435;-79
2022/04/27 05:03:40;;;;;;;7.27;6.67;;;;;;;12.29;62.27;98356.28;8159019;29;20248;-79
2022/04/27 05:07:43;;;;;;;7.07;6.47;;;;;;;12.31;62.42;98359.63;8158336;29;20243;-79
2022/04/27 05:11:48;;;;;;;7.70;7.00;;;;;;;12.43;62.14;98360.88;8158567;29;20236;-79
2022/04/27 05:15:51;;;;;;;9.07;8.10;;;;;;;12.44;62.09;98366.88;8158291;29;20266;-79
2022/04/27 05:19:54;;;;;;;8.60;7.80;;;;;;;12.49;61.91;98370.97;8158241;29;20240;-81
2022/04/27 05:23:57;;;;;;;10.30;9.30;;;;;;;12.43;62.34;98373.84;8158166;29;20333;-80
2022/04/27 05:28:02;;;;;;;10.40;9.30;;;;;;;12.57;62.41;98378.41;8158020;29;20260;-83
2022/04/27 05:32:06;;;;;;;9.37;8.50;;;;;;;12.69;62.15;98387.38;8157663;29;20244;-80
2022/04/27 05:36:11;;;;;;;9.93;9.10;;;;;;;12.69;62.58;98384.78;8157600;29;20251;-81
2022/04/27 05:40:19;;;;;;;10.80;9.70;;;;;;;12.80;62.45;98399.91;8157509;29;20244;-80
2022/04/27 05:44:25;;;;;;;10.07;9.13;;;;;;;12.89;62.25;98400.31;8156969;29;20240;-80
2022/04/27 05:48:27;;;;;;;10.30;9.40;;;;;;;12.91;61.55;98400.25;8157275;29;20244;-80
2022/04/27 05:52:31;;;;;;;10.50;9.40;;;;;;;12.98;61.72;98401.63;8157065;29;20565;-80
2022/04/27 05:56:37;;;;;;;10.57;9.47;;;;;;;13.13;61.17;98409.63;8156993;29;20247;-80
2022/04/27 06:00:49;;;;;;;10.80;8.80;;;;;;;13.29;60.46;98418.38;8156933;29;20426;-81
2022/04/27 06:04:52;;;;;;;9.90;8.97;;;;;;;13.25;60.76;98417.69;8156768;29;20240;-81
2022/04/27 06:08:55;;;;;;;9.87;8.87;;;;;;;13.27;60.98;98428.00;8156611;29;20240;-81
2022/04/27 06:12:58;;;;;;;9.43;8.63;;;;;;;13.41;60.75;98427.38;8156851;29;20252;-81
2022/04/27 06:17:03;;;;;;;9.57;8.60;;;;;;;13.58;60.44;98437.78;8156865;29;20434;-81
2022/04/27 06:21:06;;;;;;;9.03;8.23;;;;;;;13.95;59.23;98441.16;8156418;29;20248;-81
2022/04/27 06:25:09;;;;;;;8.50;7.80;;;;;;;14.24;59.12;98444.03;8156169;29;20240;-81
2022/04/27 06:29:13;;;;;;;8.03;7.30;;;;;;;14.20;58.86;98437.31;8156155;29;20243;-80
2022/04/27 06:33:17;;;;;;;8.17;7.47;;;;;;;14.23;58.97;98455.38;8155818;29;20240;-81
2022/04/27 06:37:20;;;;;;;8.13;7.43;;;;;;;14.77;56.66;98445.59;8155314;29;20251;-80
2022/04/27 06:41:23;;;;;;;9.07;8.20;;;;;;;14.46;57.95;98444.59;8154992;29;20236;-80
2022/04/27 06:45:27;;;;;;;8.33;7.57;;;;;;;15.20;56.67;98451.09;8155271;29;20248;-80
2022/04/27 06:49:32;;;;;;;8.67;7.90;;;;;;;15.59;56.03;98462.84;8155139;29;20244;-80
2022/04/27 06:53:35;;;;;;;8.47;7.17;;;;;;;15.68;55.73;98460.63;8155015;29;20255;-80
2022/04/27 06:57:39;;;;;;;8.50;7.70;;;;;;;15.18;56.94;98460.78;8155140;29;20244;-81
2022/04/27 07:01:42;;;;;;;7.23;6.53;;;;;;;14.98;57.38;98466.25;8155157;29;20251;-81
2022/04/27 07:05:47;;;;;;;8.00;7.30;;;;;;;14.75;57.37;98470.91;8155123;29;20535;-81
2022/04/27 07:09:50;;;;;;;8.57;7.77;;;;;;;14.91;57.12;98478.78;8154529;29;20447;-81
2022/04/27 07:13:54;;;;;;;8.93;8.03;;;;;;;15.02;55.90;98476.44;8155054;29;20561;-81
2022/04/27 07:17:57;;;;;;;8.83;7.93;;;;;;;15.67;54.91;98474.59;8155121;29;20235;-81
2022/04/27 07:22:02;;;;;;;8.87;7.97;;;;;;;16.33;54.55;98481.25;8154848;29;20236;-81
2022/04/27 07:26:07;;;;;;;8.47;7.57;;;;;;;16.20;53.53;98487.22;8154620;29;20249;-81
2022/04/27 07:30:11;;;;;;;6.97;6.33;;;;;;;15.91;52.94;98491.50;8154782;29;20244;-81
2022/04/27 07:34:14;;;;;;;7.23;6.63;;;;;;;16.21;53.38;98495.88;8154423;29;20411;-80
2022/04/27 07:38:18;;;;;;;7.87;7.07;;;;;;;16.20;54.31;98494.19;8154590;29;20240;-81
2022/04/27 07:42:21;;;;;;;7.33;6.63;;;;;;;16.97;51.05;98492.22;8154627;29;20239;-81
2022/04/27 07:46:24;;;;;;;7.47;6.77;;;;;;;17.30;51.14;98499.69;8153954;29;20243;-81
2022/04/27 07:50:27;;;;;;;7.87;7.07;;;;;;;17.54;49.64;98502.53;8160451;29;20427;-80
2022/04/27 07:54:32;;;;;;;7.20;6.53;;;;;;;18.23;48.45;98514.72;8160712;29;20530;-84
2022/04/27 07:58:35;;;;;;;7.07;5.87;;;;;;;18.78;48.49;98512.75;8160582;29;20246;-82
2022/04/27 08:02:44;;;;;;;10.27;6.33;;;;;;;18.95;47.53;98510.63;8160593;29;20244;-85
2022/04/27 08:06:47;;;;;;;7.63;6.93;;;;;;;19.07;47.47;98522.06;8160366;29;20243;-83
2022/04/27 08:10:52;;;;;;;6.00;5.40;;;;;;;19.20;49.02;98524.66;8159728;29;20240;-82
2022/04/27 08:14:54;;;;;;;5.93;4.23;;;;;;;19.74;52.13;98526.06;8167669;29;20236;-89
2022/04/27 08:18:57;;;;;;;7.20;5.37;;;;;;;20.25;47.58;98533.66;8160608;29;20236;-84
2022/04/27 08:23:00;;;;;;;6.43;5.90;;;;;;;20.18;43.87;98537.75;8160319;29;20554;-83
2022/04/27 08:27:05;;;;;;;5.30;4.80;;;;;;;20.99;43.09;98540.41;8159922;29;20431;-85
2022/04/27 08:31:09;;;;;;;6.47;5.03;;;;;;;21.40;42.61;98538.91;8159494;29;20244;-81
2022/04/27 08:35:13;;;;;;;4.70;4.30;;;;;;;21.77;42.37;98546.53;8160086;29;20242;-86
2022/04/27 08:39:17;;;;;;;5.20;4.70;;;;;;;21.80;42.00;98551.53;8159928;29;20250;-85
2022/04/27 08:43:22;;;;;;;5.17;4.63;;;;;;;22.11;41.68;98564.88;8159721;29;20253;-84
2022/04/27 08:47:25;;;;;;;6.67;5.20;;;;;;;22.35;41.14;98562.00;8158876;29;20245;-89
2022/04/27 08:51:30;;;;;;;9.97;4.70;;;;;;;21.93;42.90;98575.94;8160080;29;20247;-86
2022/04/27 08:55:36;;;;;;;12.33;6.10;;;;;;;20.88;44.93;98583.34;8160644;29;20251;-89
2022/04/27 08:59:42;;;;;;;8.97;4.93;;;;;;;20.75;46.24;98586.06;8159243;29;20550;-87
2022/04/27 09:03:46;;;;;;;10.03;7.53;;;;;;;21.17;41.15;98588.13;8160195;29;20249;-89
2022/04/27 09:07:51;;;;;;;9.43;7.87;;;;;;;20.95;40.46;98584.56;8160501;29;20424;-92
2022/04/27 09:12:00;;;;;;;8.07;7.37;;;;;;;19.79;42.31;98583.56;8160371;29;20240;-90
2022/04/27 09:16:05;;;;;;;8.03;7.10;;;;;;;20.43;42.09;98585.88;8159776;29;20239;-90
2022/04/27 09:24:49;;;;;;;10.43;7.77;;;;;;;18.25;44.47;98591.47;8127602;29;20251;-87
2022/04/27 09:28:53;;;;;;;7.80;7.00;;;;;;;18.75;44.78;98585.47;8128100;29;20309;-92
2022/04/27 09:32:58;;;;;;;8.43;7.63;;;;;;;18.68;43.88;98588.63;8127717;29;20246;-94
2022/04/27 09:37:01;;;;;;;7.80;7.10;;;;;;;20.09;42.07;98586.56;8128657;29;20245;-93
2022/04/27 09:41:04;;;;;;;7.60;6.90;;;;;;;20.63;39.71;98592.28;8128617;29;20471;-90
2022/04/27 09:45:17;;;;;;;8.07;7.37;;;;;;;19.49;44.02;98584.78;8127929;29;20368;-95
2022/04/27 09:49:22;;;;;;;7.23;6.53;;;;;;;19.13;44.23;98591.66;8128838;29;20243;-88
2022/04/27 09:53:43;;;;;;;7.50;6.70;;;;;;;18.40;44.79;98579.97;8158961;29;20239;-95
2022/04/27 09:57:51;;;;;;;8.10;7.33;;;;;;;19.28;43.85;98585.34;8158653;29;20238;-89
2022/04/27 10:01:55;;;;;;;7.33;6.63;;;;;;;19.62;42.63;98582.94;8158805;29;20241;-93
2022/04/27 10:06:00;;;;;;;9.90;6.40;;;;;;;20.65;41.74;98571.94;8158144;29;20319;-79
2022/04/27 10:10:05;;;;;;;7.20;6.50;;;;;;;21.22;39.34;98580.72;8155566;29;20242;-81
2022/04/27 10:14:08;;;;;;;8.67;7.60;;;;;;;20.37;38.05;98581.91;8156745;29;20274;-82
2022/04/27 10:18:12;;;;;;;6.80;6.20;;;;;;;21.61;39.22;98573.28;8158409;29;20240;-88
2022/04/27 10:22:30;;;;;;;5.90;5.30;;;;;;;21.25;37.94;98562.88;8159580;29;20242;-88
2022/04/27 10:26:35;;;;;;;8.40;6.30;;;;;;;22.29;37.34;98567.81;8158058;29;20303;-90
2022/04/27 10:30:45;;;;;;;8.13;5.83;;;;;;;21.55;34.85;98566.72;8157930;29;20244;-93
2022/04/27 10:35:19;;;;;;;9.43;5.57;;;;;;;22.49;35.72;98564.34;8157917;29;20553;-90
2022/04/27 10:39:24;;;;;;;5.97;5.43;;;;;;;22.62;35.56;98566.78;8158024;29;20250;-86
2022/04/27 10:43:28;;;;;;;6.20;5.60;;;;;;;21.64;34.01;98555.41;8157088;29;20243;-93
2022/04/27 10:47:35;;;;;;;5.23;4.60;;;;;;;21.76;36.79;98558.88;8156859;29;20247;-90
2022/04/27 10:52:01;;;;;;;5.43;4.93;;;;;;;21.88;36.04;98550.94;8157332;29;20558;-92
2022/04/27 10:56:05;;;;;;;5.17;4.70;;;;;;;21.25;35.03;98557.63;8156754;29;20246;-94
2022/04/27 11:00:09;;;;;;;5.50;4.83;;;;;;;19.92;37.40;98560.69;8156947;29;20434;-91
2022/04/27 11:04:34;;;;;;;5.37;4.60;;;;;;;19.68;38.57;98568.53;8187966;29;20231;-89
2022/04/27 11:08:44;;;;;;;8.87;4.60;;;;;;;19.59;38.34;98570.06;8188225;29;20534;-93
2022/04/27 11:12:48;;;;;;;5.70;4.13;;;;;;;18.55;36.59;98575.47;8187749;29;20243;-91
2022/04/27 11:16:51;;;;;;;8.73;6.80;;;;;;;18.32;37.87;98579.66;8187923;29;20241;-91
2022/04/27 11:21:02;;;;;;;5.23;4.60;;;;;;;18.90;39.06;98580.97;8187080;29;20309;-88
2022/04/27 11:25:08;;;;;;;5.37;4.33;;;;;;;18.92;37.43;98588.72;8186886;29;20340;-88
2022/04/27 11:29:12;;;;;;;5.57;4.30;;;;;;;18.86;38.96;98582.13;8186923;29;20433;-87
2022/04/27 11:33:18;;;;;;;5.53;4.50;;;;;;;19.04;39.37;98585.28;8186787;29;20246;-88
2022/04/27 11:37:21;;;;;;;4.20;3.80;;;;;;;18.95;37.68;98581.50;8187424;29;20255;-90
2022/04/27 11:41:26;;;;;;;4.80;4.27;;;;;;;18.45;37.14;98583.13;8186999;29;20237;-94
2022/04/27 11:45:29;;;;;;;5.37;4.60;;;;;;;18.15;38.31;98586.00;8164021;29;20251;-91
2022/04/27 11:49:32;;;;;;;4.87;4.33;;;;;;;18.13;38.49;98580.84;8125167;29;20244;-89
2022/04/27 11:53:43;;;;;;;4.60;3.90;;;;;;;18.53;37.59;98583.44;8124929;29;20252;-92
2022/04/27 11:57:49;;;;;;;7.20;4.60;;;;;;;17.67;37.83;98578.56;8125171;29;20280;-92
2022/04/27 12:01:52;;;;;;;6.47;4.17;;;;;;;17.60;38.24;98587.72;8124753;29;20241;-83
2022/04/27 12:05:56;;;;;;;4.77;3.93;;;;;;;17.65;38.96;98590.03;8128580;29;20341;-92
2022/04/27 12:10:01;;;;;;;6.73;4.40;;;;;;;17.38;40.72;98594.31;8155239;29;20433;-88
2022/04/27 12:14:06;;;;;;;4.43;4.03;;;;;;;17.72;39.77;98594.78;8155381;29;20242;-89
2022/04/27 12:18:14;;;;;;;4.47;4.07;;;;;;;18.01;39.34;98589.53;8155252;29;20551;-86
2022/04/27 12:22:18;;;;;;;6.73;4.90;;;;;;;17.99;38.15;98594.00;8154574;29;20244;-90
2022/04/27 12:26:20;;;;;;;6.20;4.67;;;;;;;17.87;39.25;98587.78;8154587;29;20554;-87
2022/04/27 12:30:25;;;;;;;5.23;4.60;;;;;;;17.83;38.33;98580.19;8154356;29;20280;-86
2022/04/27 12:38:59;;;;;;;6.53;4.13;;;;;;;18.64;37.53;98581.88;8160742;29;20415;-89
2022/04/27 12:43:04;;;;;;;6.27;4.30;;;;;;;19.09;37.86;98588.41;8160110;29;20635;-90
2022/04/27 12:47:10;;;;;;;5.67;4.63;;;;;;;18.16;37.67;98585.91;8159652;29;20244;-88
2022/04/27 12:51:13;;;;;;;5.67;4.03;;;;;;;18.38;38.22;98587.09;8160201;29;20244;-87
2022/04/27 12:55:18;;;;;;;5.30;4.80;;;;;;;17.57;38.58;98582.69;8160355;29;20244;-88
2022/04/27 12:59:21;;;;;;;6.07;5.00;;;;;;;17.62;38.01;98582.41;8159761;29;20240;-87
2022/04/27 13:03:26;;;;;;;5.77;4.77;;;;;;;17.86;39.12;98582.63;8128085;29;20431;-88
2022/04/27 13:07:29;;;;;;;5.83;4.37;;;;;;;17.90;41.01;98584.97;8128106;29;20245;-88
2022/04/27 13:15:53;;;;;;;4.07;3.67;;;;;;;17.33;41.44;98592.94;8127409;29;20418;-84
2022/04/27 13:19:59;;;;;;;4.10;3.70;;;;;;;17.41;41.77;98588.03;8127775;29;20414;-89
2022/04/27 13:24:02;;;;;;;6.27;3.93;;;;;;;17.51;44.46;98597.00;8127491;29;20293;-87
2022/04/27 13:28:06;;;;;;;5.07;3.97;;;;;;;17.41;46.47;98598.53;8127299;29;20551;-84
2022/04/27 13:32:10;;;;;;;4.23;3.83;;;;;;;17.25;43.81;98598.63;8127596;29;20249;-84
2022/04/27 13:36:14;;;;;;;6.33;3.83;;;;;;;17.41;45.96;98590.66;8126784;29;20435;-86
2022/04/27 13:40:18;;;;;;;5.43;4.60;;;;;;;17.46;44.77;98591.22;8126604;29;20240;-84
2022/04/27 13:44:20;;;;;;;7.87;5.20;;;;;;;17.53;46.03;98586.44;8126037;29;20241;-84
2022/04/27 13:48:23;;;;;;;6.07;5.23;;;;;;;17.69;45.87;98589.78;8157313;29;20516;-84
2022/04/27 13:52:28;;;;;;;5.10;4.70;;;;;;;17.61;44.02;98591.19;8157591;29;20252;-84
2022/04/27 13:56:31;;;;;;;7.13;4.60;;;;;;;17.87;42.84;98586.94;8157331;29;20352;-83
2022/04/27 14:00:34;;;;;;;4.30;3.70;;;;;;;17.99;43.78;98594.00;8157326;29;20250;-80
2022/04/27 14:04:37;;;;;;;3.40;2.63;;;;;;;18.15;39.90;98591.22;8156944;29;20244;-84
2022/04/27 14:08:42;;;;;;;4.10;2.93;;;;;;;18.36;39.51;98597.69;8156945;29;20243;-79
2022/04/27 14:21:27;;;;;;;3.20;2.90;;;;;;;19.43;40.58;98587.84;8181876;29;20243;-82
2022/04/27 14:25:31;;;;;;;3.70;3.37;;;;;;;19.19;39.19;98593.03;8188756;29;20245;-92
2022/04/27 14:29:34;;;;;;;4.17;3.50;;;;;;;19.00;38.88;98590.84;8188364;29;20446;-88
2022/04/27 14:33:38;;;;;;;5.53;3.83;;;;;;;18.86;38.96;98595.25;8188155;29;20253;-92
2022/04/27 14:37:41;;;;;;;4.80;3.67;;;;;;;18.90;39.30;98590.63;8188446;29;20243;-90
2022/04/27 14:41:46;;;;;;;5.03;4.10;;;;;;;18.72;39.95;98590.09;8188066;29;20530;-90
2022/04/27 14:45:50;;;;;;;5.17;4.07;;;;;;;18.78;39.73;98599.31;8170186;29;20470;-91
2022/04/27 14:49:54;;;;;;;123.70;51.80;;;;;;;18.73;40.72;98592.59;8156126;29;20434;-90
2022/04/27 14:53:57;;;;;;;7.10;4.80;;;;;;;18.65;38.97;98583.56;8155926;29;20248;-86
2022/04/27 14:58:02;;;;;;;8.30;3.80;;;;;;;18.64;38.97;98592.34;8155650;29;20303;-83
2022/04/27 15:02:05;;;;;;;6.90;4.20;;;;;;;18.65;38.74;98586.19;8155438;29;20315;-83
2022/04/27 15:06:09;;;;;;;4.40;3.40;;;;;;;18.76;37.88;98587.13;8155539;29;20239;-85
2022/04/27 15:10:12;;;;;;;4.07;3.40;;;;;;;18.83;39.01;98587.59;8155096;29;20251;-85
2022/04/27 15:14:16;;;;;;;3.50;3.20;;;;;;;18.85;39.05;98584.84;8155141;29;20552;-86
2022/04/27 15:18:19;;;;;;;4.47;3.63;;;;;;;18.78;39.65;98583.56;8155175;29;20241;-84
2022/04/27 15:27:03;;;;;;;6.37;3.77;;;;;;;18.89;39.62;98588.97;8154640;29;20539;-88
2022/04/27 15:31:08;;;;;;;6.53;3.77;;;;;;;19.13;38.90;98589.03;8154803;29;20248;-85
2022/04/27 15:35:11;;;;;;;4.03;3.63;;;;;;;19.37;39.37;98583.03;8154798;29;20558;-91
2022/04/27 15:39:14;;;;;;;4.50;3.70;;;;;;;19.24;38.64;98581.25;8154769;29;20240;-85
2022/04/27 15:43:20;;;;;;;5.57;3.63;;;;;;;19.28;39.08;98576.63;8154404;29;20251;-85
2022/04/27 15:47:44;;;;;;;3.23;2.70;;;;;;;19.23;34.73;98583.97;8122581;29;20244;-85
2022/04/27 15:51:47;;;;;;;5.97;3.37;;;;;;;19.13;38.06;98587.28;8123749;29;20256;-88
2022/04/27 15:55:51;;;;;;;3.20;2.90;;;;;;;19.25;36.42;98593.44;8123489;29;20253;-81
2022/04/27 15:59:54;;;;;;;3.33;3.00;;;;;;;19.27;37.12;98594.19;8123251;29;20405;-85
2022/04/27 16:03:59;;;;;;;3.30;2.60;;;;;;;19.16;34.97;98595.88;8123145;29;20547;-84
2022/04/27 16:08:02;;;;;;;2.93;2.67;;;;;;;19.23;35.01;98600.59;8123420;29;20236;-82
2022/04/27 16:12:06;;;;;;;4.27;3.50;;;;;;;18.82;34.85;98596.41;8129075;29;20562;-86
2022/04/27 16:16:09;;;;;;;3.03;2.60;;;;;;;18.99;36.00;98602.28;8128823;29;20252;-84
2022/04/27 16:20:14;;;;;;;5.00;3.30;;;;;;;18.25;35.66;98601.94;8129075;29;20242;-87
2022/04/27 16:24:17;;;;;;;4.10;3.37;;;;;;;17.81;36.26;98598.63;8148162;29;20242;-86
2022/04/27 16:28:20;;;;;;;4.00;3.10;;;;;;;17.64;36.71;98604.94;8159562;29;20456;-83
2022/04/27 16:32:24;;;;;;;5.23;2.80;;;;;;;18.22;37.78;98599.53;8159390;29;20247;-83
2022/04/27 16:36:28;;;;;;;4.03;3.00;;;;;;;17.91;34.74;98598.91;8159560;29;20325;-84
2022/04/27 16:40:31;;;;;;;4.00;3.60;;;;;;;17.44;35.41;98602.72;8159416;29;20561;-87
2022/04/27 16:44:41;;;;;;;3.47;2.90;;;;;;;17.64;35.64;98601.47;8159354;29;20247;-84
2022/04/27 16:48:44;;;;;;;3.80;2.93;;;;;;;17.77;36.20;98608.44;8159287;29;20236;-82
2022/04/27 16:52:48;;;;;;;5.53;3.30;;;;;;;17.87;35.23;98607.91;8159008;29;20244;-83
2022/04/27 16:56:51;;;;;;;2.93;2.60;;;;;;;17.65;35.43;98613.63;8158920;29;20236;-84
2022/04/27 17:00:56;;;;;;;4.87;3.20;;;;;;;17.21;34.54;98620.69;8158584;29;20242;-83
2022/04/27 17:04:59;;;;;;;3.50;2.77;;;;;;;17.37;34.12;98626.66;8159126;29;20457;-83
2022/04/27 17:09:05;;;;;;;2.83;2.50;;;;;;;17.33;33.74;98626.97;8158866;29;20251;-90
2022/04/27 17:13:08;;;;;;;3.50;2.30;;;;;;;17.41;34.13;98627.31;8158661;29;20299;-85
2022/04/27 17:17:10;;;;;;;3.13;2.30;;;;;;;17.52;34.29;98631.91;8158993;29;20240;-84
2022/04/27 17:21:13;;;;;;;2.70;2.50;;;;;;;17.34;34.61;98636.47;8158524;29;20240;-86
2022/04/27 17:27:27;;;;;;;4.60;2.30;;;;;;;17.57;34.58;98637.66;8158604;29;20248;-87
2022/04/27 17:29:41;;;;;;;3.50;2.23;;;;;;;17.55;36.13;98635.16;8158325;29;20231;-87
2022/04/27 17:33:45;;;;;;;2.87;2.57;;;;;;;17.45;34.71;98635.81;8157879;29;20240;-81
2022/04/27 17:37:48;;;;;;;5.10;2.73;;;;;;;17.36;36.42;98635.47;8158093;29;20236;-86
2022/04/27 17:41:52;;;;;;;38.17;10.97;;;;;;;18.03;55.17;98640.06;8157605;29;20247;-85
2022/04/27 17:45:56;;;;;;;20.63;6.93;;;;;;;18.48;50.69;98645.84;8157256;29;20236;-83
2022/04/27 17:49:59;;;;;;;9.70;4.40;;;;;;;18.65;44.12;98649.97;8157805;29;20535;-82
2022/04/27 17:54:02;;;;;;;6.37;3.77;;;;;;;18.49;38.87;98655.41;8157414;29;20244;-83
2022/04/27 17:58:08;;;;;;;4.03;2.80;;;;;;;18.28;35.19;98648.94;8155785;29;20728;-77
2022/04/27 18:02:11;;;;;;;4.77;2.83;;;;;;;17.66;37.43;98658.06;8153677;29;20248;-76
2022/04/27 18:06:14;;;;;;;3.10;2.80;;;;;;;17.49;38.12;98659.09;8154975;29;20232;-75
2022/04/27 18:10:18;;;;;;;4.43;2.90;;;;;;;17.29;39.68;98675.19;8156634;29;20420;-75
2022/04/27 18:14:23;;;;;;;4.63;3.05;;;;;;;17.31;40.33;98679.41;8153585;29;20447;-76
2022/04/27 18:18:29;;;;;;;5.97;5.23;;;;;;;16.99;43.24;98678.72;8156263;29;20232;-81
2022/04/27 18:22:31;;;;;;;5.80;3.83;;;;;;;16.83;42.99;98676.16;8156621;29;20307;-76
2022/04/27 18:26:35;;;;;;;3.83;3.30;;;;;;;16.70;43.52;98678.63;8156372;29;20546;-75
2022/04/27 18:30:39;;;;;;;4.17;3.20;;;;;;;16.59;43.07;98691.47;8156003;29;20263;-75
2022/04/27 18:34:42;;;;;;;4.10;3.30;;;;;;;16.34;46.01;98692.03;8137885;29;20263;-76
2022/04/27 18:38:45;;;;;;;3.30;2.90;;;;;;;16.30;43.80;98696.59;8124912;29;20240;-76
2022/04/27 18:42:50;;;;;;;4.47;2.90;;;;;;;16.23;45.58;98695.22;8124982;29;20250;-76
2022/04/27 18:51:21;;;;;;;4.20;3.07;;;;;;;16.00;46.27;98707.78;8124498;29;20259;-76
2022/04/27 18:55:25;;;;;;;5.27;3.10;;;;;;;15.95;47.09;98704.59;8155092;29;20236;-76
2022/04/27 18:59:28;;;;;;;3.40;2.90;;;;;;;15.85;48.72;98720.84;8155743;29;20240;-76
2022/04/27 19:03:36;;;;;;;4.13;3.73;;;;;;;15.77;47.67;98722.09;8155338;29;20349;-76
2022/04/27 19:07:42;;;;;;;8.10;6.07;;;;;;;15.73;47.86;98719.72;8155403;29;20535;-76
2022/04/27 19:11:45;;;;;;;10.40;9.40;;;;;;;15.60;48.31;98729.97;8155160;29;20227;-75
2022/04/27 19:15:48;;;;;;;8.20;5.83;;;;;;;15.51;48.16;98728.66;8154985;29;20240;-75
2022/04/27 19:19:53;;;;;;;4.97;3.50;;;;;;;15.34;48.01;98737.38;8155006;29;20239;-75
2022/04/27 19:23:56;;;;;;;4.80;3.27;;;;;;;15.36;48.63;98742.50;8155095;29;20248;-76
2022/04/27 19:27:59;;;;;;;5.03;3.80;;;;;;;15.25;49.10;98746.53;8155002;29;20259;-75
2022/04/27 19:32:07;;;;;;;4.60;4.00;;;;;;;15.18;49.45;98736.47;8154955;29;20562;-76
2022/04/27 19:36:12;;;;;;;6.87;4.10;;;;;;;15.11;49.29;98740.31;8154815;29;20250;-75
2022/04/27 19:40:14;;;;;;;4.93;4.00;;;;;;;15.03;49.41;98740.72;8154866;29;20239;-76
2022/04/27 19:44:18;;;;;;;5.03;4.17;;;;;;;14.94;50.11;98738.56;8158043;29;20573;-75
2022/04/27 19:48:21;;;;;;;4.67;4.07;;;;;;;14.90;50.21;98745.69;8160447;29;20256;-75